JAL511 RJTT-RJCC
Flight info
| Callsign | JAL511 |
|---|---|
| Flight time | 1h 19m |
| Altitude | 41000 |
| Route | BRUCE AGRIS Y11 SAMBO Y119 OHMAR Y13 SIRAO Y139 NAVER |
| Aircraft | A359/H-SDE2E3GHIJ3J4J5LM1ORWXY/LB1D1 |
Departure
| Time | 2026-02-18 10:34 |
|---|---|
| Airport | Tokyo Haneda International Airport (RJTT) |
Arrival
| Time | 2026-02-18 11:53 |
|---|---|
| Airport | New Chitose Airport (RJCC) |
| Time | Latitude | Longitude | Altitude | Speed | Heading |
|---|---|---|---|---|---|
| 2026-02-18 10:22 | 35.54894 | 139.78213 | 31 ft | 0 kts | 100° |
| 2026-02-18 10:23 | 35.54896 | 139.78197 | 31 ft | 3 kts | 101° |
| 2026-02-18 10:23 | 35.54901 | 139.78173 | 29 ft | 3 kts | 103° |
| 2026-02-18 10:23 | 35.54905 | 139.78149 | 28 ft | 2 kts | 103° |
| 2026-02-18 10:24 | 35.54908 | 139.78135 | 31 ft | 2 kts | 96° |
| 2026-02-18 10:24 | 35.54907 | 139.78116 | 29 ft | 3 kts | 43° |
| 2026-02-18 10:24 | 35.54891 | 139.78106 | 28 ft | 3 kts | 6° |
| 2026-02-18 10:24 | 35.54871 | 139.78106 | 30 ft | 3 kts | 355° |
| 2026-02-18 10:25 | 35.54851 | 139.78109 | 29 ft | 3 kts | 343° |
| 2026-02-18 10:25 | 35.54835 | 139.78116 | 29 ft | 0 kts | 330° |
| 2026-02-18 10:27 | 35.54878 | 139.78086 | 29 ft | 12 kts | 330° |
| 2026-02-18 10:27 | 35.54960 | 139.78030 | 30 ft | 15 kts | 331° |
| 2026-02-18 10:28 | 35.55055 | 139.77963 | 31 ft | 17 kts | 329° |
| 2026-02-18 10:28 | 35.55165 | 139.77881 | 30 ft | 20 kts | 329° |
| 2026-02-18 10:28 | 35.55292 | 139.77790 | 30 ft | 22 kts | 329° |
| 2026-02-18 10:28 | 35.55432 | 139.77689 | 30 ft | 23 kts | 330° |
| 2026-02-18 10:29 | 35.55573 | 139.77593 | 29 ft | 22 kts | 331° |
| 2026-02-18 10:29 | 35.55846 | 139.77398 | 29 ft | 22 kts | 329° |
| 2026-02-18 10:29 | 35.55951 | 139.77369 | 29 ft | 14 kts | 26° |
| 2026-02-18 10:30 | 35.56050 | 139.77404 | 29 ft | 16 kts | 8° |
| 2026-02-18 10:30 | 35.56157 | 139.77475 | 29 ft | 19 kts | 34° |
| 2026-02-18 10:30 | 35.56273 | 139.77575 | 29 ft | 22 kts | 35° |
| 2026-02-18 10:30 | 35.56367 | 139.77713 | 28 ft | 21 kts | 59° |
| 2026-02-18 10:31 | 35.56437 | 139.77864 | 29 ft | 20 kts | 60° |
| 2026-02-18 10:31 | 35.56497 | 139.77988 | 29 ft | 13 kts | 59° |
| 2026-02-18 10:31 | 35.56569 | 139.77995 | 29 ft | 12 kts | 315° |
| 2026-02-18 10:31 | 35.56625 | 139.77894 | 29 ft | 15 kts | 306° |
| 2026-02-18 10:32 | 35.56685 | 139.77791 | 29 ft | 15 kts | 306° |
| 2026-02-18 10:32 | 35.56712 | 139.77682 | 31 ft | 13 kts | 246° |
| 2026-02-18 10:32 | 35.56671 | 139.77639 | 31 ft | 0 kts | 215° |
| 2026-02-18 10:33 | 35.56652 | 139.77622 | 31 ft | 20 kts | 215° |
| 2026-02-18 10:33 | 35.56281 | 139.77308 | 31 ft | 110 kts | 214° |
| 2026-02-18 10:34 | 35.55464 | 139.76610 | 250 ft | 164 kts | 214° |
| 2026-02-18 10:34 | 35.54490 | 139.75827 | 1215 ft | 171 kts | 207° |
| 2026-02-18 10:34 | 35.53195 | 139.75599 | 1855 ft | 210 kts | 177° |
| 2026-02-18 10:34 | 35.51734 | 139.75821 | 2731 ft | 216 kts | 174° |
| 2026-02-18 10:35 | 35.50182 | 139.76033 | 3141 ft | 234 kts | 176° |
| 2026-02-18 10:35 | 35.48488 | 139.76134 | 3602 ft | 251 kts | 180° |
| 2026-02-18 10:35 | 35.46704 | 139.76156 | 4203 ft | 260 kts | 182° |
| 2026-02-18 10:35 | 35.44871 | 139.76150 | 4900 ft | 266 kts | 182° |
| 2026-02-18 10:36 | 35.42995 | 139.76144 | 5621 ft | 271 kts | 182° |
| 2026-02-18 10:36 | 35.41093 | 139.76150 | 6379 ft | 275 kts | 182° |
| 2026-02-18 10:36 | 35.40472 | 139.76152 | 6607 ft | 276 kts | 182° |
| 2026-02-18 10:37 | 35.35284 | 139.76266 | 8721 ft | 283 kts | 176° |
| 2026-02-18 10:37 | 35.31410 | 139.77478 | 10245 ft | 293 kts | 168° |
| 2026-02-18 10:37 | 35.29418 | 139.78196 | 10618 ft | 310 kts | 169° |
| 2026-02-18 10:38 | 35.27284 | 139.78954 | 10920 ft | 326 kts | 169° |
| 2026-02-18 10:38 | 35.25053 | 139.79742 | 11256 ft | 341 kts | 170° |
| 2026-02-18 10:38 | 35.22696 | 139.80273 | 11608 ft | 345 kts | 184° |
| 2026-02-18 10:38 | 35.20361 | 139.79839 | 12157 ft | 336 kts | 206° |
| 2026-02-18 10:39 | 35.18387 | 139.78440 | 12828 ft | 324 kts | 225° |
| 2026-02-18 10:39 | 35.16823 | 139.76547 | 13589 ft | 319 kts | 232° |
| 2026-02-18 10:39 | 35.15812 | 139.75200 | 14052 ft | 318 kts | 233° |
| 2026-02-18 10:39 | 35.14324 | 139.73194 | 14602 ft | 320 kts | 233° |
| 2026-02-18 10:40 | 35.12949 | 139.71065 | 15105 ft | 318 kts | 242° |
| 2026-02-18 10:40 | 35.12014 | 139.68628 | 15643 ft | 316 kts | 255° |
| 2026-02-18 10:40 | 35.11665 | 139.66019 | 16199 ft | 316 kts | 268° |
| 2026-02-18 10:40 | 35.11930 | 139.63312 | 16764 ft | 321 kts | 282° |
| 2026-02-18 10:41 | 35.12669 | 139.60749 | 17322 ft | 326 kts | 288° |
| 2026-02-18 10:41 | 35.14438 | 139.55595 | 18373 ft | 331 kts | 290° |
| 2026-02-18 10:41 | 35.15614 | 139.53131 | 18829 ft | 341 kts | 300° |
| 2026-02-18 10:42 | 35.17308 | 139.51038 | 19290 ft | 354 kts | 314° |
| 2026-02-18 10:42 | 35.19384 | 139.49333 | 19800 ft | 361 kts | 319° |
| 2026-02-18 10:42 | 35.21510 | 139.47744 | 20249 ft | 364 kts | 320° |
| 2026-02-18 10:42 | 35.23688 | 139.46124 | 20703 ft | 366 kts | 320° |
| 2026-02-18 10:43 | 35.25863 | 139.44495 | 21151 ft | 367 kts | 320° |
| 2026-02-18 10:43 | 35.28046 | 139.42850 | 21519 ft | 369 kts | 320° |
| 2026-02-18 10:43 | 35.30243 | 139.41188 | 22050 ft | 371 kts | 319° |
| 2026-02-18 10:43 | 35.32445 | 139.39518 | 22521 ft | 373 kts | 319° |
| 2026-02-18 10:44 | 35.34670 | 139.37827 | 22936 ft | 377 kts | 319° |
| 2026-02-18 10:44 | 35.36876 | 139.36148 | 23320 ft | 380 kts | 319° |
| 2026-02-18 10:44 | 35.39130 | 139.34433 | 23683 ft | 382 kts | 319° |
| 2026-02-18 10:44 | 35.41390 | 139.32712 | 24038 ft | 384 kts | 319° |
| 2026-02-18 10:45 | 35.43659 | 139.30983 | 24403 ft | 386 kts | 319° |
| 2026-02-18 10:45 | 35.48244 | 139.27483 | 25120 ft | 390 kts | 319° |
| 2026-02-18 10:45 | 35.50554 | 139.25718 | 25472 ft | 392 kts | 319° |
| 2026-02-18 10:46 | 35.52901 | 139.23960 | 25858 ft | 398 kts | 321° |
| 2026-02-18 10:46 | 35.55412 | 139.22508 | 26244 ft | 410 kts | 329° |
| 2026-02-18 10:46 | 35.58218 | 139.21566 | 26621 ft | 428 kts | 340° |
| 2026-02-18 10:46 | 35.61254 | 139.21367 | 27014 ft | 449 kts | 353° |
| 2026-02-18 10:47 | 35.64390 | 139.22094 | 27454 ft | 471 kts | 8° |
| 2026-02-18 10:47 | 35.67434 | 139.23848 | 27752 ft | 495 kts | 24° |
| 2026-02-18 10:47 | 35.70173 | 139.26537 | 28120 ft | 512 kts | 37° |
| 2026-02-18 10:47 | 35.72661 | 139.29717 | 28514 ft | 519 kts | 42° |
| 2026-02-18 10:48 | 35.75047 | 139.33086 | 28916 ft | 524 kts | 44° |
| 2026-02-18 10:48 | 35.77417 | 139.36524 | 29315 ft | 528 kts | 44° |
| 2026-02-18 10:48 | 35.79863 | 139.40039 | 29724 ft | 531 kts | 43° |
| 2026-02-18 10:48 | 35.82252 | 139.43403 | 30078 ft | 534 kts | 42° |
| 2026-02-18 10:49 | 35.84740 | 139.46841 | 30380 ft | 537 kts | 42° |
| 2026-02-18 10:49 | 35.89790 | 139.53705 | 30981 ft | 544 kts | 41° |
| 2026-02-18 10:49 | 35.92358 | 139.57174 | 31191 ft | 549 kts | 41° |
| 2026-02-18 10:50 | 35.94912 | 139.60625 | 31473 ft | 552 kts | 41° |
| 2026-02-18 10:50 | 35.97503 | 139.64137 | 31759 ft | 555 kts | 41° |
| 2026-02-18 10:50 | 36.00100 | 139.67663 | 32027 ft | 558 kts | 41° |
| 2026-02-18 10:50 | 36.02720 | 139.71226 | 32317 ft | 560 kts | 41° |
| 2026-02-18 10:51 | 36.05358 | 139.74820 | 32562 ft | 564 kts | 41° |
| 2026-02-18 10:51 | 36.08001 | 139.78423 | 32781 ft | 567 kts | 42° |
| 2026-02-18 10:51 | 36.10652 | 139.82042 | 33045 ft | 568 kts | 42° |
| 2026-02-18 10:51 | 36.13319 | 139.85659 | 33412 ft | 566 kts | 40° |
| 2026-02-18 10:52 | 36.16228 | 139.88910 | 33745 ft | 556 kts | 30° |
| 2026-02-18 10:52 | 36.19378 | 139.91463 | 34017 ft | 544 kts | 20° |
| 2026-02-18 10:52 | 36.22818 | 139.93326 | 34243 ft | 530 kts | 8° |
| 2026-02-18 10:52 | 36.26334 | 139.94365 | 34459 ft | 516 kts | 358° |
| 2026-02-18 10:53 | 36.29868 | 139.94795 | 34705 ft | 506 kts | 352° |
| 2026-02-18 10:53 | 36.36850 | 139.94724 | 35295 ft | 498 kts | 346° |
| 2026-02-18 10:53 | 36.40318 | 139.94529 | 35541 ft | 498 kts | 346° |
| 2026-02-18 10:54 | 36.43756 | 139.94343 | 35775 ft | 501 kts | 347° |
| 2026-02-18 10:54 | 36.47258 | 139.94321 | 36059 ft | 506 kts | 349° |
| 2026-02-18 10:54 | 36.50788 | 139.94442 | 36379 ft | 509 kts | 351° |
| 2026-02-18 10:54 | 36.54340 | 139.94631 | 36736 ft | 508 kts | 351° |
| 2026-02-18 10:55 | 36.57836 | 139.94834 | 37007 ft | 508 kts | 351° |
| 2026-02-18 10:55 | 36.61417 | 139.95033 | 37246 ft | 509 kts | 351° |
| 2026-02-18 10:55 | 36.64915 | 139.95212 | 37467 ft | 509 kts | 351° |
| 2026-02-18 10:55 | 36.68455 | 139.95379 | 37701 ft | 509 kts | 351° |
| 2026-02-18 10:56 | 36.72002 | 139.95538 | 38021 ft | 508 kts | 351° |
| 2026-02-18 10:56 | 36.75538 | 139.95693 | 38314 ft | 507 kts | 350° |
| 2026-02-18 10:56 | 36.79068 | 139.95845 | 38532 ft | 508 kts | 350° |
| 2026-02-18 10:56 | 36.82612 | 139.95995 | 38701 ft | 509 kts | 350° |
| 2026-02-18 10:57 | 36.86158 | 139.96197 | 38871 ft | 514 kts | 353° |
| 2026-02-18 10:57 | 36.93339 | 139.97644 | 39212 ft | 527 kts | 0° |
| 2026-02-18 10:57 | 36.96946 | 139.98538 | 39358 ft | 529 kts | 1° |
| 2026-02-18 10:58 | 37.00554 | 139.99472 | 39535 ft | 530 kts | 1° |
| 2026-02-18 10:58 | 37.04165 | 140.00423 | 39718 ft | 530 kts | 1° |
| 2026-02-18 10:58 | 37.07732 | 140.01372 | 39887 ft | 530 kts | 1° |
| 2026-02-18 10:58 | 37.11348 | 140.02322 | 40080 ft | 530 kts | 1° |
| 2026-02-18 10:59 | 37.14967 | 140.03263 | 40213 ft | 530 kts | 1° |
| 2026-02-18 10:59 | 37.18580 | 140.04198 | 40364 ft | 530 kts | 1° |
| 2026-02-18 10:59 | 37.22185 | 140.05130 | 40505 ft | 530 kts | 1° |
| 2026-02-18 10:59 | 37.25806 | 140.06065 | 40647 ft | 530 kts | 1° |
| 2026-02-18 11:00 | 37.29419 | 140.07000 | 40800 ft | 530 kts | 1° |
| 2026-02-18 11:00 | 37.33036 | 140.07936 | 40887 ft | 531 kts | 1° |
| 2026-02-18 11:00 | 37.40255 | 140.09814 | 40887 ft | 529 kts | 1° |
| 2026-02-18 11:01 | 37.51037 | 140.12623 | 40921 ft | 529 kts | 1° |
| 2026-02-18 11:02 | 37.58238 | 140.14505 | 40891 ft | 528 kts | 2° |
| 2026-02-18 11:02 | 37.65435 | 140.16386 | 40882 ft | 527 kts | 2° |
| 2026-02-18 11:03 | 37.72631 | 140.18269 | 40890 ft | 527 kts | 2° |
| 2026-02-18 11:03 | 37.79819 | 140.20153 | 40891 ft | 527 kts | 2° |
| 2026-02-18 11:04 | 37.87027 | 140.22047 | 40891 ft | 528 kts | 2° |
| 2026-02-18 11:04 | 37.94195 | 140.23935 | 40902 ft | 528 kts | 2° |
| 2026-02-18 11:05 | 38.01398 | 140.25838 | 40892 ft | 527 kts | 2° |
| 2026-02-18 11:05 | 38.12170 | 140.28688 | 40890 ft | 527 kts | 2° |
| 2026-02-18 11:06 | 38.19350 | 140.30593 | 40888 ft | 527 kts | 2° |
| 2026-02-18 11:06 | 38.26535 | 140.32503 | 40886 ft | 527 kts | 2° |
| 2026-02-18 11:07 | 38.33664 | 140.34402 | 40884 ft | 527 kts | 2° |
| 2026-02-18 11:07 | 38.40845 | 140.36334 | 40884 ft | 527 kts | 4° |
| 2026-02-18 11:08 | 38.47993 | 140.38576 | 40883 ft | 530 kts | 6° |
| 2026-02-18 11:08 | 38.55130 | 140.40953 | 40890 ft | 530 kts | 6° |
| 2026-02-18 11:09 | 38.65870 | 140.44468 | 40885 ft | 530 kts | 5° |
| 2026-02-18 11:10 | 38.72970 | 140.46763 | 40886 ft | 530 kts | 5° |
| 2026-02-18 11:10 | 38.80164 | 140.49087 | 40901 ft | 530 kts | 6° |
| 2026-02-18 11:11 | 38.87308 | 140.51403 | 40880 ft | 528 kts | 6° |
| 2026-02-18 11:11 | 38.94396 | 140.53705 | 40888 ft | 528 kts | 6° |
| 2026-02-18 11:12 | 39.01532 | 140.56027 | 40902 ft | 529 kts | 6° |
| 2026-02-18 11:12 | 39.08703 | 140.58371 | 40883 ft | 528 kts | 6° |
| 2026-02-18 11:13 | 39.15785 | 140.60695 | 40882 ft | 528 kts | 6° |
| 2026-02-18 11:13 | 39.26544 | 140.64234 | 40882 ft | 529 kts | 6° |
| 2026-02-18 11:14 | 39.33673 | 140.66586 | 40882 ft | 529 kts | 6° |
| 2026-02-18 11:14 | 39.40805 | 140.68941 | 40875 ft | 528 kts | 7° |
| 2026-02-18 11:15 | 39.47893 | 140.71289 | 40883 ft | 528 kts | 7° |
| 2026-02-18 11:15 | 39.55009 | 140.73649 | 40862 ft | 528 kts | 7° |
| 2026-02-18 11:16 | 39.62121 | 140.76011 | 40865 ft | 528 kts | 7° |
| 2026-02-18 11:16 | 39.69242 | 140.78383 | 40860 ft | 528 kts | 7° |
| 2026-02-18 11:17 | 39.79923 | 140.81953 | 40855 ft | 527 kts | 7° |
| 2026-02-18 11:18 | 39.87036 | 140.84341 | 40852 ft | 528 kts | 7° |
| 2026-02-18 11:18 | 39.94151 | 140.86730 | 40846 ft | 527 kts | 7° |
| 2026-02-18 11:19 | 40.01225 | 140.89105 | 40848 ft | 528 kts | 7° |
| 2026-02-18 11:19 | 40.08351 | 140.91504 | 40833 ft | 529 kts | 7° |
| 2026-02-18 11:20 | 40.15488 | 140.93913 | 40834 ft | 529 kts | 7° |
| 2026-02-18 11:20 | 40.21462 | 140.95035 | 40835 ft | 516 kts | 356° |
| 2026-02-18 11:21 | 40.28632 | 140.95436 | 40826 ft | 514 kts | 354° |
| 2026-02-18 11:21 | 40.39368 | 140.95741 | 40828 ft | 514 kts | 354° |
| 2026-02-18 11:22 | 40.46520 | 140.95950 | 40815 ft | 514 kts | 354° |
| 2026-02-18 11:22 | 40.53629 | 140.96177 | 40810 ft | 514 kts | 354° |
| 2026-02-18 11:23 | 40.60787 | 140.96416 | 40806 ft | 514 kts | 354° |
| 2026-02-18 11:23 | 40.67939 | 140.96656 | 40816 ft | 513 kts | 354° |
| 2026-02-18 11:24 | 40.75095 | 140.96896 | 40802 ft | 514 kts | 354° |
| 2026-02-18 11:24 | 40.82251 | 140.97138 | 40811 ft | 514 kts | 354° |
| 2026-02-18 11:25 | 40.92923 | 140.97490 | 40795 ft | 512 kts | 354° |
| 2026-02-18 11:26 | 41.00044 | 140.97726 | 40789 ft | 512 kts | 354° |
| 2026-02-18 11:26 | 41.07158 | 140.97965 | 40778 ft | 510 kts | 355° |
| 2026-02-18 11:27 | 41.14275 | 140.98205 | 40779 ft | 509 kts | 355° |
| 2026-02-18 11:27 | 41.21333 | 140.98443 | 40776 ft | 510 kts | 355° |
| 2026-02-18 11:28 | 41.28440 | 140.98777 | 40552 ft | 513 kts | 360° |
| 2026-02-18 11:28 | 41.31988 | 140.99579 | 40312 ft | 520 kts | 9° |
| 2026-02-18 11:28 | 41.35462 | 141.00953 | 39764 ft | 522 kts | 13° |
| 2026-02-18 11:28 | 41.38873 | 141.02506 | 39017 ft | 526 kts | 15° |
| 2026-02-18 11:29 | 41.42316 | 141.04188 | 38277 ft | 528 kts | 16° |
| 2026-02-18 11:29 | 41.49218 | 141.07676 | 36723 ft | 528 kts | 17° |
| 2026-02-18 11:29 | 41.52647 | 141.09410 | 36006 ft | 526 kts | 17° |
| 2026-02-18 11:30 | 41.56073 | 141.11130 | 35292 ft | 525 kts | 17° |
| 2026-02-18 11:30 | 41.59445 | 141.12813 | 34568 ft | 524 kts | 16° |
| 2026-02-18 11:30 | 41.62936 | 141.14546 | 33717 ft | 526 kts | 17° |
| 2026-02-18 11:30 | 41.66335 | 141.16231 | 32783 ft | 527 kts | 17° |
| 2026-02-18 11:31 | 41.69791 | 141.17949 | 31893 ft | 528 kts | 17° |
| 2026-02-18 11:31 | 41.73230 | 141.19678 | 31003 ft | 528 kts | 17° |
| 2026-02-18 11:31 | 41.76674 | 141.21419 | 30101 ft | 530 kts | 17° |
| 2026-02-18 11:31 | 41.80138 | 141.23175 | 29007 ft | 532 kts | 18° |
| 2026-02-18 11:32 | 41.83553 | 141.24909 | 28134 ft | 528 kts | 18° |
| 2026-02-18 11:32 | 41.86973 | 141.26645 | 27488 ft | 521 kts | 18° |
| 2026-02-18 11:32 | 41.90352 | 141.28362 | 26827 ft | 514 kts | 19° |
| 2026-02-18 11:32 | 41.93672 | 141.30081 | 26152 ft | 510 kts | 21° |
| 2026-02-18 11:33 | 41.96777 | 141.32363 | 25479 ft | 507 kts | 34° |
| 2026-02-18 11:33 | 42.02032 | 141.38526 | 24149 ft | 497 kts | 44° |
| 2026-02-18 11:33 | 42.04543 | 141.41724 | 23504 ft | 493 kts | 45° |
| 2026-02-18 11:34 | 42.07021 | 141.44900 | 22787 ft | 489 kts | 45° |
| 2026-02-18 11:34 | 42.09432 | 141.47997 | 22112 ft | 482 kts | 46° |
| 2026-02-18 11:34 | 42.11856 | 141.51075 | 21462 ft | 476 kts | 43° |
| 2026-02-18 11:34 | 42.14534 | 141.53678 | 20855 ft | 470 kts | 32° |
| 2026-02-18 11:35 | 42.17368 | 141.55846 | 20212 ft | 465 kts | 28° |
| 2026-02-18 11:35 | 42.20185 | 141.57923 | 19611 ft | 459 kts | 28° |
| 2026-02-18 11:35 | 42.22973 | 141.59979 | 18989 ft | 455 kts | 28° |
| 2026-02-18 11:35 | 42.25737 | 141.62025 | 18366 ft | 450 kts | 28° |
| 2026-02-18 11:36 | 42.28472 | 141.64059 | 17701 ft | 445 kts | 29° |
| 2026-02-18 11:36 | 42.31138 | 141.66045 | 17061 ft | 440 kts | 29° |
| 2026-02-18 11:36 | 42.33837 | 141.68060 | 16420 ft | 434 kts | 29° |
| 2026-02-18 11:36 | 42.36426 | 141.69996 | 15806 ft | 430 kts | 29° |
| 2026-02-18 11:37 | 42.39027 | 141.71943 | 15193 ft | 425 kts | 28° |
| 2026-02-18 11:37 | 42.44176 | 141.75801 | 13951 ft | 418 kts | 29° |
| 2026-02-18 11:37 | 42.46723 | 141.77712 | 13299 ft | 415 kts | 28° |
| 2026-02-18 11:38 | 42.49245 | 141.79604 | 12827 ft | 414 kts | 29° |
| 2026-02-18 11:38 | 42.51763 | 141.81507 | 12425 ft | 413 kts | 29° |
| 2026-02-18 11:38 | 42.54276 | 141.83396 | 12105 ft | 412 kts | 29° |
| 2026-02-18 11:38 | 42.56779 | 141.85244 | 11692 ft | 408 kts | 26° |
| 2026-02-18 11:39 | 42.59429 | 141.86431 | 11279 ft | 403 kts | 7° |
| 2026-02-18 11:39 | 42.62209 | 141.86519 | 10894 ft | 396 kts | 354° |
| 2026-02-18 11:39 | 42.64922 | 141.86265 | 10654 ft | 379 kts | 353° |
| 2026-02-18 11:39 | 42.67481 | 141.85995 | 10394 ft | 365 kts | 353° |
| 2026-02-18 11:40 | 42.69980 | 141.85740 | 10119 ft | 352 kts | 353° |
| 2026-02-18 11:40 | 42.72394 | 141.85500 | 9882 ft | 340 kts | 353° |
| 2026-02-18 11:40 | 42.74709 | 141.85273 | 9636 ft | 328 kts | 353° |
| 2026-02-18 11:40 | 42.76950 | 141.85055 | 9320 ft | 319 kts | 353° |
| 2026-02-18 11:41 | 42.79126 | 141.84842 | 8899 ft | 315 kts | 353° |
| 2026-02-18 11:41 | 42.83434 | 141.84154 | 7996 ft | 308 kts | 345° |
| 2026-02-18 11:41 | 42.85515 | 141.83506 | 7584 ft | 304 kts | 344° |
| 2026-02-18 11:42 | 42.87568 | 141.82842 | 7149 ft | 302 kts | 344° |
| 2026-02-18 11:42 | 42.89603 | 141.82191 | 6805 ft | 299 kts | 344° |
| 2026-02-18 11:42 | 42.91631 | 141.81547 | 6498 ft | 299 kts | 345° |
| 2026-02-18 11:42 | 42.93661 | 141.80903 | 6188 ft | 299 kts | 345° |
| 2026-02-18 11:43 | 42.95690 | 141.80260 | 5862 ft | 298 kts | 345° |
| 2026-02-18 11:43 | 42.97692 | 141.79625 | 5557 ft | 298 kts | 345° |
| 2026-02-18 11:43 | 42.99711 | 141.78905 | 5242 ft | 297 kts | 338° |
| 2026-02-18 11:43 | 43.01493 | 141.77532 | 4925 ft | 293 kts | 320° |
| 2026-02-18 11:44 | 43.02929 | 141.75621 | 4619 ft | 284 kts | 298° |
| 2026-02-18 11:44 | 43.03553 | 141.73212 | 4447 ft | 255 kts | 266° |
| 2026-02-18 11:44 | 43.03329 | 141.70995 | 4318 ft | 225 kts | 240° |
| 2026-02-18 11:44 | 43.02584 | 141.69255 | 4199 ft | 203 kts | 224° |
| 2026-02-18 11:45 | 43.01732 | 141.67804 | 4101 ft | 189 kts | 221° |
| 2026-02-18 11:45 | 42.99948 | 141.65740 | 3888 ft | 147 kts | 192° |
| 2026-02-18 11:45 | 42.99011 | 141.65532 | 3813 ft | 128 kts | 179° |
| 2026-02-18 11:46 | 42.98156 | 141.65526 | 3757 ft | 120 kts | 175° |
| 2026-02-18 11:46 | 42.97328 | 141.65591 | 3690 ft | 118 kts | 172° |
| 2026-02-18 11:46 | 42.96511 | 141.65697 | 3557 ft | 117 kts | 171° |
| 2026-02-18 11:46 | 42.95711 | 141.65835 | 3423 ft | 117 kts | 169° |
| 2026-02-18 11:47 | 42.94906 | 141.65984 | 3307 ft | 116 kts | 170° |
| 2026-02-18 11:47 | 42.94107 | 141.66125 | 3237 ft | 114 kts | 171° |
| 2026-02-18 11:47 | 42.93344 | 141.66249 | 3097 ft | 106 kts | 172° |
| 2026-02-18 11:47 | 42.92621 | 141.66370 | 2953 ft | 104 kts | 172° |
| 2026-02-18 11:48 | 42.91908 | 141.66499 | 2819 ft | 103 kts | 171° |
| 2026-02-18 11:48 | 42.91195 | 141.66626 | 2657 ft | 103 kts | 171° |
| 2026-02-18 11:48 | 42.90481 | 141.66752 | 2521 ft | 103 kts | 171° |
| 2026-02-18 11:48 | 42.89769 | 141.66878 | 2370 ft | 103 kts | 171° |
| 2026-02-18 11:49 | 42.89062 | 141.67003 | 2200 ft | 102 kts | 171° |
| 2026-02-18 11:49 | 42.87650 | 141.67253 | 1907 ft | 101 kts | 170° |
| 2026-02-18 11:49 | 42.86952 | 141.67377 | 1766 ft | 102 kts | 170° |
| 2026-02-18 11:50 | 42.86244 | 141.67502 | 1620 ft | 102 kts | 169° |
| 2026-02-18 11:50 | 42.85539 | 141.67627 | 1476 ft | 102 kts | 168° |
| 2026-02-18 11:50 | 42.84829 | 141.67753 | 1327 ft | 103 kts | 168° |
| 2026-02-18 11:50 | 42.84115 | 141.67880 | 1176 ft | 104 kts | 169° |
| 2026-02-18 11:51 | 42.83391 | 141.68008 | 1031 ft | 105 kts | 168° |
| 2026-02-18 11:51 | 42.82662 | 141.68119 | 842 ft | 108 kts | 170° |
| 2026-02-18 11:51 | 42.81932 | 141.68209 | 794 ft | 113 kts | 171° |
| 2026-02-18 11:51 | 42.81116 | 141.68401 | 607 ft | 120 kts | 165° |
| 2026-02-18 11:52 | 42.80301 | 141.68544 | 406 ft | 114 kts | 169° |
| 2026-02-18 11:52 | 42.79521 | 141.68685 | 262 ft | 112 kts | 168° |
| 2026-02-18 11:52 | 42.78724 | 141.68828 | 132 ft | 115 kts | 167° |
| 2026-02-18 11:52 | 42.77958 | 141.68966 | 90 ft | 101 kts | 175° |
| 2026-02-18 11:53 | 42.77384 | 141.69068 | 90 ft | 68 kts | 173° |
| 2026-02-18 11:53 | 42.76780 | 141.69096 | 90 ft | 23 kts | 195° |
| 2026-02-18 11:53 | 42.76704 | 141.68997 | 90 ft | 12 kts | 283° |
| 2026-02-18 11:54 | 42.76782 | 141.68947 | 90 ft | 15 kts | 348° |
| 2026-02-18 11:54 | 42.76901 | 141.68928 | 88 ft | 20 kts | 353° |
| 2026-02-18 11:54 | 42.77052 | 141.68899 | 88 ft | 24 kts | 352° |
| 2026-02-18 11:54 | 42.77232 | 141.68868 | 89 ft | 26 kts | 353° |
| 2026-02-18 11:55 | 42.77327 | 141.68851 | 88 ft | 17 kts | 352° |
| 2026-02-18 11:55 | 42.77446 | 141.68830 | 89 ft | 19 kts | 353° |
| 2026-02-18 11:55 | 42.77590 | 141.68805 | 89 ft | 23 kts | 353° |
| 2026-02-18 11:55 | 42.77695 | 141.68786 | 89 ft | 25 kts | 352° |
| 2026-02-18 11:56 | 42.77866 | 141.68760 | 89 ft | 27 kts | 351° |
| 2026-02-18 11:56 | 42.78062 | 141.68721 | 89 ft | 30 kts | 352° |
| 2026-02-18 11:56 | 42.78263 | 141.68686 | 90 ft | 27 kts | 352° |
| 2026-02-18 11:56 | 42.78444 | 141.68657 | 88 ft | 21 kts | 353° |
| 2026-02-18 11:57 | 42.78600 | 141.68626 | 88 ft | 24 kts | 351° |
| 2026-02-18 11:57 | 42.78855 | 141.68577 | 89 ft | 15 kts | 351° |
| 2026-02-18 11:57 | 42.78905 | 141.68503 | 88 ft | 11 kts | 274° |
| 2026-02-18 11:58 | 42.78891 | 141.68397 | 89 ft | 14 kts | 253° |
| 2026-02-18 11:58 | 42.78867 | 141.68309 | 87 ft | 7 kts | 249° |
| 2026-02-18 11:58 | 42.78857 | 141.68277 | 87 ft | 2 kts | 248° |
| 2026-02-18 11:58 | 42.78856 | 141.68275 | 87 ft | 0 kts | 248° |